Relevés horaires Schaffen (Belgique)


Relevés horaires à Schaffen - Lundi 17 Févr. 2020
Heure UTC1 Température [°C] Vent [km/h] Hum. [%] Pres.4 [hPa] Visi. [Km] Nébu. [octa] Préc.5 [mm] Cond.
2m. Res. Ros. Dir.2 Vit. Moy. Raf.3
23:00 7.9 6.3 3.9 SO 9.3 -- 20.4 76 1018.2(2.2/3h) 20 -- -- --
22:00 8.0 6 4.2 SO 11.1 -- 25.9 77 1017.6(1.9/3h) 20 -- -- --
21:00 7.8 5.8 3.8 SO 11.1 -- 24.1 76 1016.8(1.9/3h) 20 -- -- --
20:00 8.1 5.9 3.7 OSO 13.0 -- 24.1 74 1016(1.6/3h) 20 -- -- --
19:00 8.6 6.8 3.4 OSO 11.1 -- 22.2 70 1015.6(2.0/3h) 20 -- -- --
18:00 8.3 6.1 3.0 SO 13.0 -- 37.0 69 1014.8(1.4/3h) 20 -- 1/12h
NA
17:00 8.1 6.5 2.8 OSO 9.3 -- 29.6 69 1014.2(0.7/3h) 20 -- -- NA
16:00 9.6 8 1.0 OSO 11.1 -- 27.8 55 1013.6(0.6/3h) 20 -- -- --
15:00 9.6 7.2 1.9 OSO 16.7 -- 37.0 59 1013.5(0.1/3h) 20 -- -- NA
14:00 9.3 6.8 3.7 OSO 16.7 -- 37.0 68 1013.5(0.4/3h) 20 -- -- NA
13:00 10.3 8.5 3.5 SO 13.0 -- 25.9 63 1012.8(-0.2/3h) 20 -- -- Il y a de la pluie faible et continue à la station au moment de l'observation
12:00 10.3 8.5 3.4 SO 13.0 -- 27.8 62 1013.2(0.0/3h) 20 -- -- --
11:00 10.8 9.1 3.6 SO 13.0 -- 24.1 61 1013(-0.3/3h) 20 -- -- --
10:00 9.7 7.8 3.7 SSO 13.0 -- 24.1 66 1013.2(0.3/3h) 20 -- -- --
09:00 8.6 6.8 4.2 SSO 11.1 -- 20.4 74 1013.2(0.7/3h) 20 -- -- --
08:00 7.4 6.1 3.8 SSO 7.4 -- 14.8 78 1013.5(0.4/3h) 20 -- -- --
07:00 7.4 6.1 3.6 SSO 7.4 -- 16.7 77 1012.8(0.1/3h) 20 -- -- --
06:00 7.4 5.7 3.2 SSO 9.3 -- 25.9 75 1012.6(0.0/3h) 20 -- -- NA
05:00 7.6 6.3 2.4 SSO 7.4 -- 16.7 70 1013(1.4/3h) 20 -- -- --
04:00 7.7 6.4 2.2 SO 7.4 -- 18.5 68 1012.7(2.2/3h) 20 -- -- --
03:00 7.8 5.8 2.7 OSO 11.1 -- 25.9 70 1012.5(3.1/3h) 20 -- -- NA
02:00 6.9 4.7 3.3 OSO 11.1 -- 25.9 78 1011.5(3.5/3h) 20 -- -- NA
01:00 8.5 6.6 4.7 SO 11.1 -- 22.2 77 1010.5(3.0/3h) 20 -- -- --
00:00 8.5 6.6 4.9 SO 11.1 -- 33.3 78 1009.2(2.8/3h) 20 -- -- NA

1 Coordinated Universal Time. Actuellement il est 16:00 locale et 14:00 UTC.

2 Le vent souffle depuis la direction indiquée vers la direction oposée.

3 Les rafales max. sont disponible 40 min après l'heure du relevé.

4 Pour les stations d'altitude (plus de 600m) le géopotentiel du niveau le plus proche de la pression obligatoire est indiqué.

5 Les stations disposant d'un diffuseur peuvent indiquer "trace". Cela signifie que des précipitations ont touchés le sol mais que la quantité est inférieure à 0.1 mm.

Récapitulatif de la journée
Température [°C] Vent [km/h] Ensoleillement4 [h] Precipitations totale5 [mm] Pression [Hpa]
Min1 Max.2 Moy.3 Max. Min Max.
6.9 11.4 0 37.0 0 h 0 min 0 1009.2 1018.2

1 Température minimale relevée entre 18:00 UTC la veille et 18:00 UTC le jour donné.

2 Température maximale relevée entre 06:00 UTC le jour donné et 06:00 UTC le lendemain.

3 Vent moyen de la journée basé sur les relevés horaires.

4 Ensoleillement en heures relevé entre 06:00 UTC la veille et 06:00 UTC le jour donné.

5 Précipitations totales tombées entre 06:00 UTC la jour donné et 06:00 UTC le lendemain.

Graphiques horaires